sensor_id;sensor_type;location;lat;lon;timestamp;temperature;humidity
5621;DHT22;2832;50.864;12.186;2022-12-05T00:01:17;5.90;99.90
5621;DHT22;2832;50.864;12.186;2022-12-05T00:03:45;5.90;99.90
5621;DHT22;2832;50.864;12.186;2022-12-05T00:06:14;5.90;99.90
5621;DHT22;2832;50.864;12.186;2022-12-05T00:08:45;5.90;99.90
5621;DHT22;2832;50.864;12.186;2022-12-05T00:11:17;5.90;99.90
5621;DHT22;2832;50.864;12.186;2022-12-05T00:13:45;5.80;99.90
5621;DHT22;2832;50.864;12.186;2022-12-05T00:16:16;5.90;99.90
5621;DHT22;2832;50.864;12.186;2022-12-05T00:18:45;5.90;99.90
5621;DHT22;2832;50.864;12.186;2022-12-05T00:21:14;5.90;99.90
5621;DHT22;2832;50.864;12.186;2022-12-05T00:23:45;5.90;99.90
5621;DHT22;2832;50.864;12.186;2022-12-05T00:26:14;5.90;99.90
5621;DHT22;2832;50.864;12.186;2022-12-05T00:28:42;5.90;99.90
5621;DHT22;2832;50.864;12.186;2022-12-05T00:31:12;5.90;99.90
5621;DHT22;2832;50.864;12.186;2022-12-05T00:33:41;5.90;99.90
5621;DHT22;2832;50.864;12.186;2022-12-05T00:36:12;5.90;99.90
5621;DHT22;2832;50.864;12.186;2022-12-05T00:38:40;5.90;99.90
5621;DHT22;2832;50.864;12.186;2022-12-05T00:41:13;5.90;99.90
5621;DHT22;2832;50.864;12.186;2022-12-05T00:43:41;5.90;99.90
5621;DHT22;2832;50.864;12.186;2022-12-05T00:46:12;5.90;99.90
5621;DHT22;2832;50.864;12.186;2022-12-05T00:48:40;5.90;99.90
5621;DHT22;2832;50.864;12.186;2022-12-05T00:51:10;5.90;99.90
5621;DHT22;2832;50.864;12.186;2022-12-05T00:53:39;5.90;99.90
5621;DHT22;2832;50.864;12.186;2022-12-05T00:56:10;5.90;99.90
5621;DHT22;2832;50.864;12.186;2022-12-05T00:58:39;6.00;99.90
5621;DHT22;2832;50.864;12.186;2022-12-05T01:01:08;5.90;99.90
5621;DHT22;2832;50.864;12.186;2022-12-05T01:03:36;6.00;99.90
5621;DHT22;2832;50.864;12.186;2022-12-05T01:06:05;6.00;99.90
5621;DHT22;2832;50.864;12.186;2022-12-05T01:08:33;5.90;99.90
5621;DHT22;2832;50.864;12.186;2022-12-05T01:11:03;5.90;99.90
5621;DHT22;2832;50.864;12.186;2022-12-05T01:13:33;5.90;99.90
5621;DHT22;2832;50.864;12.186;2022-12-05T01:16:02;6.00;99.90
5621;DHT22;2832;50.864;12.186;2022-12-05T01:18:31;6.00;99.90
5621;DHT22;2832;50.864;12.186;2022-12-05T01:20:59;6.00;99.90
5621;DHT22;2832;50.864;12.186;2022-12-05T01:23:27;6.00;99.90
5621;DHT22;2832;50.864;12.186;2022-12-05T01:25:55;6.00;99.90
5621;DHT22;2832;50.864;12.186;2022-12-05T01:28:23;6.00;99.90
5621;DHT22;2832;50.864;12.186;2022-12-05T01:30:53;6.00;99.90
5621;DHT22;2832;50.864;12.186;2022-12-05T01:33:21;6.00;99.90
5621;DHT22;2832;50.864;12.186;2022-12-05T01:35:49;6.00;99.90
5621;DHT22;2832;50.864;12.186;2022-12-05T01:38:16;6.00;99.90
5621;DHT22;2832;50.864;12.186;2022-12-05T01:40:45;6.00;99.90
5621;DHT22;2832;50.864;12.186;2022-12-05T01:43:14;6.00;99.90
5621;DHT22;2832;50.864;12.186;2022-12-05T01:45:44;6.00;99.90
5621;DHT22;2832;50.864;12.186;2022-12-05T01:48:17;5.90;99.90
5621;DHT22;2832;50.864;12.186;2022-12-05T01:50:46;6.00;99.90
5621;DHT22;2832;50.864;12.186;2022-12-05T01:53:16;6.00;99.90
5621;DHT22;2832;50.864;12.186;2022-12-05T01:55:45;6.00;99.90
5621;DHT22;2832;50.864;12.186;2022-12-05T01:58:15;6.00;99.90
5621;DHT22;2832;50.864;12.186;2022-12-05T02:00:44;6.00;99.90
5621;DHT22;2832;50.864;12.186;2022-12-05T02:03:17;5.90;99.90
5621;DHT22;2832;50.864;12.186;2022-12-05T02:05:47;6.00;99.90
5621;DHT22;2832;50.864;12.186;2022-12-05T02:08:17;6.00;99.90
5621;DHT22;2832;50.864;12.186;2022-12-05T02:10:47;5.90;99.90
5621;DHT22;2832;50.864;12.186;2022-12-05T02:13:31;6.00;99.90
5621;DHT22;2832;50.864;12.186;2022-12-05T02:16:05;6.00;99.90
5621;DHT22;2832;50.864;12.186;2022-12-05T02:18:47;6.00;99.90
5621;DHT22;2832;50.864;12.186;2022-12-05T02:21:46;6.00;99.90
5621;DHT22;2832;50.864;12.186;2022-12-05T02:27:43;6.00;99.90
5621;DHT22;2832;50.864;12.186;2022-12-05T02:30:18;6.00;99.90
5621;DHT22;2832;50.864;12.186;2022-12-05T02:32:52;6.00;99.90
5621;DHT22;2832;50.864;12.186;2022-12-05T02:35:33;6.00;99.90
5621;DHT22;2832;50.864;12.186;2022-12-05T02:38:14;6.10;99.90
5621;DHT22;2832;50.864;12.186;2022-12-05T02:40:52;6.10;99.90
5621;DHT22;2832;50.864;12.186;2022-12-05T02:43:25;6.10;99.90
5621;DHT22;2832;50.864;12.186;2022-12-05T02:45:59;6.10;99.90
5621;DHT22;2832;50.864;12.186;2022-12-05T02:48:28;6.00;99.90
5621;DHT22;2832;50.864;12.186;2022-12-05T02:50:57;6.10;99.90
5621;DHT22;2832;50.864;12.186;2022-12-05T02:53:27;6.10;99.90
5621;DHT22;2832;50.864;12.186;2022-12-05T02:55:56;6.10;99.90
5621;DHT22;2832;50.864;12.186;2022-12-05T02:58:33;6.00;99.90
5621;DHT22;2832;50.864;12.186;2022-12-05T03:01:04;6.00;99.90
5621;DHT22;2832;50.864;12.186;2022-12-05T03:03:32;6.00;99.90
5621;DHT22;2832;50.864;12.186;2022-12-05T03:06:04;6.00;99.90
5621;DHT22;2832;50.864;12.186;2022-12-05T03:08:36;6.00;99.90
5621;DHT22;2832;50.864;12.186;2022-12-05T03:11:06;6.00;99.90
5621;DHT22;2832;50.864;12.186;2022-12-05T03:13:39;6.00;99.90
5621;DHT22;2832;50.864;12.186;2022-12-05T03:16:12;6.00;99.90
5621;DHT22;2832;50.864;12.186;2022-12-05T03:18:46;6.00;99.90
5621;DHT22;2832;50.864;12.186;2022-12-05T03:21:21;6.00;99.90
5621;DHT22;2832;50.864;12.186;2022-12-05T03:23:55;6.00;99.90
5621;DHT22;2832;50.864;12.186;2022-12-05T03:26:35;6.00;99.90
5621;DHT22;2832;50.864;12.186;2022-12-05T03:29:18;6.00;99.90
5621;DHT22;2832;50.864;12.186;2022-12-05T03:31:54;6.00;99.90
5621;DHT22;2832;50.864;12.186;2022-12-05T03:34:31;6.10;99.90
5621;DHT22;2832;50.864;12.186;2022-12-05T03:37:03;6.00;99.90
5621;DHT22;2832;50.864;12.186;2022-12-05T03:39:34;6.00;99.90
5621;DHT22;2832;50.864;12.186;2022-12-05T03:42:08;6.00;99.90
5621;DHT22;2832;50.864;12.186;2022-12-05T03:44:44;6.10;99.90
5621;DHT22;2832;50.864;12.186;2022-12-05T03:47:19;6.10;99.90
5621;DHT22;2832;50.864;12.186;2022-12-05T03:49:51;6.10;99.90
5621;DHT22;2832;50.864;12.186;2022-12-05T03:52:25;6.10;99.90
5621;DHT22;2832;50.864;12.186;2022-12-05T03:54:56;6.10;99.90
5621;DHT22;2832;50.864;12.186;2022-12-05T03:57:27;6.10;99.90
5621;DHT22;2832;50.864;12.186;2022-12-05T03:59:59;6.10;99.90
5621;DHT22;2832;50.864;12.186;2022-12-05T04:02:33;6.10;99.90
5621;DHT22;2832;50.864;12.186;2022-12-05T04:05:12;6.10;99.90
5621;DHT22;2832;50.864;12.186;2022-12-05T04:07:45;6.10;99.90
5621;DHT22;2832;50.864;12.186;2022-12-05T04:10:15;6.10;99.90
5621;DHT22;2832;50.864;12.186;2022-12-05T04:12:46;6.10;99.90
5621;DHT22;2832;50.864;12.186;2022-12-05T04:15:19;6.10;99.90
5621;DHT22;2832;50.864;12.186;2022-12-05T04:17:55;6.10;99.90
5621;DHT22;2832;50.864;12.186;2022-12-05T04:20:28;6.00;99.90
5621;DHT22;2832;50.864;12.186;2022-12-05T04:23:15;6.10;99.90
5621;DHT22;2832;50.864;12.186;2022-12-05T04:25:53;6.00;99.90
5621;DHT22;2832;50.864;12.186;2022-12-05T04:28:26;6.00;99.90
5621;DHT22;2832;50.864;12.186;2022-12-05T04:31:04;6.10;99.90
5621;DHT22;2832;50.864;12.186;2022-12-05T04:33:41;6.10;99.90
5621;DHT22;2832;50.864;12.186;2022-12-05T04:36:12;6.20;99.90
5621;DHT22;2832;50.864;12.186;2022-12-05T04:38:47;6.20;99.90
5621;DHT22;2832;50.864;12.186;2022-12-05T04:41:21;6.10;99.90
5621;DHT22;2832;50.864;12.186;2022-12-05T04:43:51;6.10;99.90
5621;DHT22;2832;50.864;12.186;2022-12-05T04:46:21;6.10;99.90
5621;DHT22;2832;50.864;12.186;2022-12-05T04:48:54;6.20;99.90
5621;DHT22;2832;50.864;12.186;2022-12-05T04:51:24;6.20;99.90
5621;DHT22;2832;50.864;12.186;2022-12-05T04:53:55;6.10;99.90
5621;DHT22;2832;50.864;12.186;2022-12-05T04:56:26;6.20;99.90
5621;DHT22;2832;50.864;12.186;2022-12-05T04:58:55;6.20;99.90
5621;DHT22;2832;50.864;12.186;2022-12-05T05:01:28;6.20;99.90
5621;DHT22;2832;50.864;12.186;2022-12-05T05:04:01;6.20;99.90
5621;DHT22;2832;50.864;12.186;2022-12-05T05:06:32;6.20;99.90
5621;DHT22;2832;50.864;12.186;2022-12-05T05:09:03;6.20;99.90
5621;DHT22;2832;50.864;12.186;2022-12-05T05:11:32;6.20;99.90
5621;DHT22;2832;50.864;12.186;2022-12-05T05:14:01;6.20;99.90
5621;DHT22;2832;50.864;12.186;2022-12-05T05:16:33;6.20;99.90
5621;DHT22;2832;50.864;12.186;2022-12-05T05:19:02;6.20;99.90
5621;DHT22;2832;50.864;12.186;2022-12-05T05:21:32;6.20;99.90
5621;DHT22;2832;50.864;12.186;2022-12-05T05:24:01;6.10;99.90
5621;DHT22;2832;50.864;12.186;2022-12-05T05:26:30;6.10;99.90
5621;DHT22;2832;50.864;12.186;2022-12-05T05:29:01;6.20;99.90
5621;DHT22;2832;50.864;12.186;2022-12-05T05:31:29;6.10;99.90
5621;DHT22;2832;50.864;12.186;2022-12-05T05:33:58;6.10;99.90
5621;DHT22;2832;50.864;12.186;2022-12-05T05:36:27;6.10;99.90
5621;DHT22;2832;50.864;12.186;2022-12-05T05:38:57;6.10;99.90
5621;DHT22;2832;50.864;12.186;2022-12-05T05:41:27;6.10;99.90
5621;DHT22;2832;50.864;12.186;2022-12-05T05:43:55;6.10;99.90
5621;DHT22;2832;50.864;12.186;2022-12-05T05:46:26;6.10;99.90
5621;DHT22;2832;50.864;12.186;2022-12-05T05:48:55;6.20;99.90
5621;DHT22;2832;50.864;12.186;2022-12-05T05:51:23;6.20;99.90
5621;DHT22;2832;50.864;12.186;2022-12-05T05:53:57;6.10;99.90
5621;DHT22;2832;50.864;12.186;2022-12-05T05:56:25;6.20;99.90
5621;DHT22;2832;50.864;12.186;2022-12-05T05:58:58;6.20;99.90
5621;DHT22;2832;50.864;12.186;2022-12-05T06:01:27;6.20;99.90
5621;DHT22;2832;50.864;12.186;2022-12-05T06:03:55;6.20;99.90
5621;DHT22;2832;50.864;12.186;2022-12-05T06:06:26;6.20;99.90
5621;DHT22;2832;50.864;12.186;2022-12-05T06:08:55;6.20;99.90
5621;DHT22;2832;50.864;12.186;2022-12-05T06:11:25;6.20;99.90
5621;DHT22;2832;50.864;12.186;2022-12-05T06:13:54;6.20;99.90
5621;DHT22;2832;50.864;12.186;2022-12-05T06:16:23;6.20;99.90
5621;DHT22;2832;50.864;12.186;2022-12-05T06:18:51;6.10;99.90
5621;DHT22;2832;50.864;12.186;2022-12-05T06:21:20;6.20;99.90
5621;DHT22;2832;50.864;12.186;2022-12-05T06:23:48;6.20;99.90
5621;DHT22;2832;50.864;12.186;2022-12-05T06:26:20;6.10;99.90
5621;DHT22;2832;50.864;12.186;2022-12-05T06:28:51;6.10;99.90
5621;DHT22;2832;50.864;12.186;2022-12-05T06:31:21;6.10;99.90
5621;DHT22;2832;50.864;12.186;2022-12-05T06:33:49;6.20;99.90
5621;DHT22;2832;50.864;12.186;2022-12-05T06:36:19;6.20;99.90
5621;DHT22;2832;50.864;12.186;2022-12-05T06:38:48;6.20;99.90
5621;DHT22;2832;50.864;12.186;2022-12-05T06:41:19;6.20;99.90
5621;DHT22;2832;50.864;12.186;2022-12-05T06:43:47;6.10;99.90
5621;DHT22;2832;50.864;12.186;2022-12-05T06:46:16;6.20;99.90
5621;DHT22;2832;50.864;12.186;2022-12-05T06:48:46;6.20;99.90
5621;DHT22;2832;50.864;12.186;2022-12-05T06:51:15;6.10;99.90
5621;DHT22;2832;50.864;12.186;2022-12-05T06:53:44;6.10;99.90
5621;DHT22;2832;50.864;12.186;2022-12-05T06:56:13;6.10;99.90
5621;DHT22;2832;50.864;12.186;2022-12-05T06:58:47;6.20;99.90
5621;DHT22;2832;50.864;12.186;2022-12-05T07:01:18;6.20;99.90
5621;DHT22;2832;50.864;12.186;2022-12-05T07:04:04;6.20;99.90
5621;DHT22;2832;50.864;12.186;2022-12-05T07:06:32;6.20;99.90
5621;DHT22;2832;50.864;12.186;2022-12-05T07:09:00;6.20;99.90
5621;DHT22;2832;50.864;12.186;2022-12-05T07:11:28;6.20;99.90
5621;DHT22;2832;50.864;12.186;2022-12-05T07:13:59;6.20;99.90
5621;DHT22;2832;50.864;12.186;2022-12-05T07:16:27;6.20;99.90
5621;DHT22;2832;50.864;12.186;2022-12-05T07:18:54;6.10;99.90
5621;DHT22;2832;50.864;12.186;2022-12-05T07:21:23;6.10;99.90
5621;DHT22;2832;50.864;12.186;2022-12-05T07:23:51;6.10;99.90
5621;DHT22;2832;50.864;12.186;2022-12-05T07:26:22;6.00;99.90
5621;DHT22;2832;50.864;12.186;2022-12-05T07:28:51;6.00;99.90
5621;DHT22;2832;50.864;12.186;2022-12-05T07:31:21;6.00;99.90
5621;DHT22;2832;50.864;12.186;2022-12-05T07:33:51;6.10;99.90
5621;DHT22;2832;50.864;12.186;2022-12-05T07:36:22;6.10;99.90
5621;DHT22;2832;50.864;12.186;2022-12-05T07:38:55;6.10;99.90
5621;DHT22;2832;50.864;12.186;2022-12-05T07:41:27;6.10;99.90
5621;DHT22;2832;50.864;12.186;2022-12-05T07:43:57;6.10;99.90
5621;DHT22;2832;50.864;12.186;2022-12-05T07:46:28;6.10;99.90
5621;DHT22;2832;50.864;12.186;2022-12-05T07:48:56;6.20;99.90
5621;DHT22;2832;50.864;12.186;2022-12-05T07:51:25;6.20;99.90
5621;DHT22;2832;50.864;12.186;2022-12-05T07:53:55;6.20;99.90
5621;DHT22;2832;50.864;12.186;2022-12-05T07:56:23;6.20;99.90
5621;DHT22;2832;50.864;12.186;2022-12-05T07:58:51;6.20;99.90
5621;DHT22;2832;50.864;12.186;2022-12-05T08:01:20;6.20;99.90
5621;DHT22;2832;50.864;12.186;2022-12-05T08:03:55;6.20;99.90
5621;DHT22;2832;50.864;12.186;2022-12-05T08:06:24;6.20;99.90
5621;DHT22;2832;50.864;12.186;2022-12-05T08:08:52;6.20;99.90
5621;DHT22;2832;50.864;12.186;2022-12-05T08:11:22;6.20;99.90
5621;DHT22;2832;50.864;12.186;2022-12-05T08:13:50;6.20;99.90
5621;DHT22;2832;50.864;12.186;2022-12-05T08:16:21;6.30;99.90
5621;DHT22;2832;50.864;12.186;2022-12-05T08:18:54;6.30;99.90
5621;DHT22;2832;50.864;12.186;2022-12-05T08:21:25;6.30;99.90
5621;DHT22;2832;50.864;12.186;2022-12-05T08:23:54;6.30;99.90
5621;DHT22;2832;50.864;12.186;2022-12-05T08:26:23;6.30;99.90
5621;DHT22;2832;50.864;12.186;2022-12-05T08:28:53;6.20;99.90
5621;DHT22;2832;50.864;12.186;2022-12-05T08:31:23;6.20;99.90
5621;DHT22;2832;50.864;12.186;2022-12-05T08:33:51;6.20;99.90
5621;DHT22;2832;50.864;12.186;2022-12-05T08:36:22;6.20;99.90
5621;DHT22;2832;50.864;12.186;2022-12-05T08:38:55;6.20;99.90
5621;DHT22;2832;50.864;12.186;2022-12-05T08:41:23;6.20;99.90
5621;DHT22;2832;50.864;12.186;2022-12-05T08:43:55;6.20;99.90
5621;DHT22;2832;50.864;12.186;2022-12-05T08:46:23;6.20;99.90
5621;DHT22;2832;50.864;12.186;2022-12-05T08:48:51;6.30;99.90
5621;DHT22;2832;50.864;12.186;2022-12-05T08:51:23;6.30;99.90
5621;DHT22;2832;50.864;12.186;2022-12-05T08:53:51;6.30;99.90
5621;DHT22;2832;50.864;12.186;2022-12-05T08:56:21;6.20;99.90
5621;DHT22;2832;50.864;12.186;2022-12-05T08:58:49;6.20;99.90
5621;DHT22;2832;50.864;12.186;2022-12-05T09:01:20;6.10;99.90
5621;DHT22;2832;50.864;12.186;2022-12-05T09:03:48;6.10;99.90
5621;DHT22;2832;50.864;12.186;2022-12-05T09:06:18;6.00;99.90
5621;DHT22;2832;50.864;12.186;2022-12-05T09:08:48;6.00;99.90
5621;DHT22;2832;50.864;12.186;2022-12-05T09:11:18;5.90;99.90
5621;DHT22;2832;50.864;12.186;2022-12-05T09:13:50;5.80;99.90
5621;DHT22;2832;50.864;12.186;2022-12-05T09:16:20;5.90;99.90
5621;DHT22;2832;50.864;12.186;2022-12-05T09:18:49;5.80;99.90
5621;DHT22;2832;50.864;12.186;2022-12-05T09:21:19;5.80;99.90
5621;DHT22;2832;50.864;12.186;2022-12-05T09:23:51;5.80;99.90
5621;DHT22;2832;50.864;12.186;2022-12-05T09:26:23;5.90;99.90
5621;DHT22;2832;50.864;12.186;2022-12-05T09:28:52;5.90;99.90
5621;DHT22;2832;50.864;12.186;2022-12-05T09:31:26;5.90;99.90
5621;DHT22;2832;50.864;12.186;2022-12-05T09:33:56;6.00;99.90
5621;DHT22;2832;50.864;12.186;2022-12-05T09:36:27;6.00;99.90
5621;DHT22;2832;50.864;12.186;2022-12-05T09:39:00;6.00;99.90
5621;DHT22;2832;50.864;12.186;2022-12-05T09:44:41;6.00;99.90
5621;DHT22;2832;50.864;12.186;2022-12-05T09:47:17;6.00;99.90
5621;DHT22;2832;50.864;12.186;2022-12-05T09:49:54;5.90;99.90
5621;DHT22;2832;50.864;12.186;2022-12-05T09:52:27;6.00;99.90
5621;DHT22;2832;50.864;12.186;2022-12-05T09:55:02;5.90;99.90
5621;DHT22;2832;50.864;12.186;2022-12-05T09:57:35;5.90;99.90
5621;DHT22;2832;50.864;12.186;2022-12-05T10:00:06;5.90;99.90
5621;DHT22;2832;50.864;12.186;2022-12-05T10:02:43;5.90;99.90
5621;DHT22;2832;50.864;12.186;2022-12-05T10:05:19;5.90;99.90
5621;DHT22;2832;50.864;12.186;2022-12-05T10:07:56;6.00;99.90
5621;DHT22;2832;50.864;12.186;2022-12-05T10:10:38;6.00;99.90
5621;DHT22;2832;50.864;12.186;2022-12-05T10:13:21;5.90;99.90
5621;DHT22;2832;50.864;12.186;2022-12-05T10:15:53;5.90;99.90
5621;DHT22;2832;50.864;12.186;2022-12-05T10:18:31;5.90;99.90
5621;DHT22;2832;50.864;12.186;2022-12-05T10:21:11;5.80;99.90
5621;DHT22;2832;50.864;12.186;2022-12-05T10:23:49;5.90;99.90
5621;DHT22;2832;50.864;12.186;2022-12-05T10:26:20;5.90;99.90
5621;DHT22;2832;50.864;12.186;2022-12-05T10:28:52;5.80;99.90
5621;DHT22;2832;50.864;12.186;2022-12-05T10:31:26;5.80;99.90
5621;DHT22;2832;50.864;12.186;2022-12-05T10:34:02;5.90;99.90
5621;DHT22;2832;50.864;12.186;2022-12-05T10:36:30;5.80;99.90
5621;DHT22;2832;50.864;12.186;2022-12-05T10:39:00;5.90;99.90
5621;DHT22;2832;50.864;12.186;2022-12-05T10:41:30;5.90;99.90
5621;DHT22;2832;50.864;12.186;2022-12-05T10:43:58;5.90;99.90
5621;DHT22;2832;50.864;12.186;2022-12-05T10:46:27;5.90;99.90
5621;DHT22;2832;50.864;12.186;2022-12-05T10:48:56;5.90;99.90
5621;DHT22;2832;50.864;12.186;2022-12-05T10:51:27;5.90;99.90
5621;DHT22;2832;50.864;12.186;2022-12-05T10:53:56;5.90;99.90
5621;DHT22;2832;50.864;12.186;2022-12-05T10:56:42;5.80;99.90
5621;DHT22;2832;50.864;12.186;2022-12-05T10:59:13;5.80;99.90
5621;DHT22;2832;50.864;12.186;2022-12-05T11:01:47;5.80;99.90
5621;DHT22;2832;50.864;12.186;2022-12-05T11:04:24;5.80;99.90
5621;DHT22;2832;50.864;12.186;2022-12-05T11:06:57;5.90;99.90
5621;DHT22;2832;50.864;12.186;2022-12-05T11:09:27;5.90;99.90
5621;DHT22;2832;50.864;12.186;2022-12-05T11:15:00;5.90;99.90
5621;DHT22;2832;50.864;12.186;2022-12-05T11:17:32;5.90;99.90
5621;DHT22;2832;50.864;12.186;2022-12-05T11:20:00;5.80;99.90
5621;DHT22;2832;50.864;12.186;2022-12-05T11:22:34;5.90;99.90
5621;DHT22;2832;50.864;12.186;2022-12-05T11:25:23;5.90;99.90
5621;DHT22;2832;50.864;12.186;2022-12-05T11:27:52;5.90;99.90
5621;DHT22;2832;50.864;12.186;2022-12-05T11:30:22;5.90;99.90
5621;DHT22;2832;50.864;12.186;2022-12-05T11:33:10;5.90;99.90
5621;DHT22;2832;50.864;12.186;2022-12-05T11:35:39;5.80;99.90
5621;DHT22;2832;50.864;12.186;2022-12-05T11:38:10;5.90;99.90
5621;DHT22;2832;50.864;12.186;2022-12-05T11:40:49;5.90;99.90
5621;DHT22;2832;50.864;12.186;2022-12-05T11:43:37;5.80;99.90
5621;DHT22;2832;50.864;12.186;2022-12-05T11:46:15;5.80;99.90
5621;DHT22;2832;50.864;12.186;2022-12-05T11:48:57;5.80;99.90
5621;DHT22;2832;50.864;12.186;2022-12-05T11:51:35;5.80;99.90
5621;DHT22;2832;50.864;12.186;2022-12-05T11:54:21;5.80;99.90
5621;DHT22;2832;50.864;12.186;2022-12-05T11:56:57;5.90;99.90
5621;DHT22;2832;50.864;12.186;2022-12-05T11:59:49;5.90;99.90
5621;DHT22;2832;50.864;12.186;2022-12-05T12:02:35;5.80;99.90
5621;DHT22;2832;50.864;12.186;2022-12-05T12:05:14;5.80;99.90
5621;DHT22;2832;50.864;12.186;2022-12-05T12:08:00;5.80;99.90
5621;DHT22;2832;50.864;12.186;2022-12-05T12:10:34;5.80;99.90
5621;DHT22;2832;50.864;12.186;2022-12-05T12:13:18;5.80;99.90
5621;DHT22;2832;50.864;12.186;2022-12-05T12:16:09;5.70;99.90
5621;DHT22;2832;50.864;12.186;2022-12-05T12:19:02;5.80;99.90
5621;DHT22;2832;50.864;12.186;2022-12-05T12:21:46;5.70;99.90
5621;DHT22;2832;50.864;12.186;2022-12-05T12:24:26;5.80;99.90
5621;DHT22;2832;50.864;12.186;2022-12-05T12:27:07;5.80;99.90
5621;DHT22;2832;50.864;12.186;2022-12-05T12:29:51;5.80;99.90
5621;DHT22;2832;50.864;12.186;2022-12-05T12:32:29;5.70;99.90
5621;DHT22;2832;50.864;12.186;2022-12-05T12:35:14;5.70;99.90
5621;DHT22;2832;50.864;12.186;2022-12-05T12:37:56;5.70;99.90
5621;DHT22;2832;50.864;12.186;2022-12-05T12:40:29;5.70;99.90
5621;DHT22;2832;50.864;12.186;2022-12-05T12:43:10;5.70;99.90
5621;DHT22;2832;50.864;12.186;2022-12-05T12:45:49;5.70;99.90
5621;DHT22;2832;50.864;12.186;2022-12-05T12:48:29;5.70;99.90
5621;DHT22;2832;50.864;12.186;2022-12-05T12:51:01;5.60;99.90
5621;DHT22;2832;50.864;12.186;2022-12-05T12:53:43;5.60;99.90
5621;DHT22;2832;50.864;12.186;2022-12-05T12:56:23;5.60;99.90
5621;DHT22;2832;50.864;12.186;2022-12-05T12:59:15;5.60;99.90
5621;DHT22;2832;50.864;12.186;2022-12-05T13:01:49;5.60;99.90
5621;DHT22;2832;50.864;12.186;2022-12-05T13:04:22;5.60;99.90
5621;DHT22;2832;50.864;12.186;2022-12-05T13:06:56;5.70;99.90
5621;DHT22;2832;50.864;12.186;2022-12-05T13:09:29;5.60;99.90
5621;DHT22;2832;50.864;12.186;2022-12-05T13:12:01;5.60;99.90
5621;DHT22;2832;50.864;12.186;2022-12-05T13:14:34;5.70;99.90
5621;DHT22;2832;50.864;12.186;2022-12-05T13:17:05;5.70;99.90
5621;DHT22;2832;50.864;12.186;2022-12-05T13:19:39;5.60;99.90
5621;DHT22;2832;50.864;12.186;2022-12-05T13:22:10;5.60;99.90
5621;DHT22;2832;50.864;12.186;2022-12-05T13:24:39;5.60;99.90
5621;DHT22;2832;50.864;12.186;2022-12-05T13:27:14;5.60;99.90
5621;DHT22;2832;50.864;12.186;2022-12-05T13:29:48;5.60;99.90
5621;DHT22;2832;50.864;12.186;2022-12-05T13:32:29;5.70;99.90
5621;DHT22;2832;50.864;12.186;2022-12-05T13:35:00;5.70;99.90
5621;DHT22;2832;50.864;12.186;2022-12-05T13:37:44;5.70;99.90
5621;DHT22;2832;50.864;12.186;2022-12-05T13:40:31;5.70;99.90
5621;DHT22;2832;50.864;12.186;2022-12-05T13:43:19;5.80;99.90
5621;DHT22;2832;50.864;12.186;2022-12-05T13:46:01;5.80;99.90
5621;DHT22;2832;50.864;12.186;2022-12-05T13:48:34;5.80;99.90
5621;DHT22;2832;50.864;12.186;2022-12-05T13:51:08;5.80;99.90
5621;DHT22;2832;50.864;12.186;2022-12-05T13:53:42;5.80;99.90
5621;DHT22;2832;50.864;12.186;2022-12-05T13:56:25;5.70;99.90
5621;DHT22;2832;50.864;12.186;2022-12-05T13:58:55;5.80;99.90
5621;DHT22;2832;50.864;12.186;2022-12-05T14:01:47;5.80;99.90
5621;DHT22;2832;50.864;12.186;2022-12-05T14:07:13;5.80;99.90
5621;DHT22;2832;50.864;12.186;2022-12-05T14:10:05;5.80;99.90
5621;DHT22;2832;50.864;12.186;2022-12-05T14:12:53;5.70;99.90
5621;DHT22;2832;50.864;12.186;2022-12-05T14:15:28;5.80;99.90
5621;DHT22;2832;50.864;12.186;2022-12-05T14:18:12;5.70;99.90
5621;DHT22;2832;50.864;12.186;2022-12-05T14:21:04;5.80;99.90
5621;DHT22;2832;50.864;12.186;2022-12-05T14:23:48;5.70;99.90
5621;DHT22;2832;50.864;12.186;2022-12-05T14:26:50;5.70;99.90
5621;DHT22;2832;50.864;12.186;2022-12-05T14:29:36;5.70;99.90
5621;DHT22;2832;50.864;12.186;2022-12-05T14:32:18;5.60;99.90
5621;DHT22;2832;50.864;12.186;2022-12-05T14:35:00;5.70;99.90
5621;DHT22;2832;50.864;12.186;2022-12-05T14:37:33;5.70;99.90
5621;DHT22;2832;50.864;12.186;2022-12-05T14:40:16;5.70;99.90
5621;DHT22;2832;50.864;12.186;2022-12-05T14:42:52;5.70;99.90
5621;DHT22;2832;50.864;12.186;2022-12-05T14:45:36;5.70;99.90
5621;DHT22;2832;50.864;12.186;2022-12-05T14:48:24;5.70;99.90
5621;DHT22;2832;50.864;12.186;2022-12-05T14:50:55;5.70;99.90
5621;DHT22;2832;50.864;12.186;2022-12-05T14:53:31;5.70;99.90
5621;DHT22;2832;50.864;12.186;2022-12-05T14:56:18;5.80;99.90
5621;DHT22;2832;50.864;12.186;2022-12-05T14:58:54;5.70;99.90
5621;DHT22;2832;50.864;12.186;2022-12-05T15:01:27;5.70;99.90
5621;DHT22;2832;50.864;12.186;2022-12-05T15:04:07;5.80;99.90
5621;DHT22;2832;50.864;12.186;2022-12-05T15:06:44;5.70;99.90
5621;DHT22;2832;50.864;12.186;2022-12-05T15:12:17;5.70;99.90
5621;DHT22;2832;50.864;12.186;2022-12-05T15:14:53;5.70;99.90
5621;DHT22;2832;50.864;12.186;2022-12-05T15:17:28;5.70;99.90
5621;DHT22;2832;50.864;12.186;2022-12-05T15:20:01;5.80;99.90
5621;DHT22;2832;50.864;12.186;2022-12-05T15:22:34;5.80;99.90
5621;DHT22;2832;50.864;12.186;2022-12-05T15:25:21;5.80;99.90
5621;DHT22;2832;50.864;12.186;2022-12-05T15:28:01;5.80;99.90
5621;DHT22;2832;50.864;12.186;2022-12-05T15:30:34;5.70;99.90
5621;DHT22;2832;50.864;12.186;2022-12-05T15:33:10;5.70;99.90
5621;DHT22;2832;50.864;12.186;2022-12-05T15:35:40;5.70;99.90
5621;DHT22;2832;50.864;12.186;2022-12-05T15:38:15;5.70;99.90
5621;DHT22;2832;50.864;12.186;2022-12-05T15:40:47;5.70;99.90
5621;DHT22;2832;50.864;12.186;2022-12-05T15:43:27;5.70;99.90
5621;DHT22;2832;50.864;12.186;2022-12-05T15:46:18;5.80;99.90
5621;DHT22;2832;50.864;12.186;2022-12-05T15:48:57;5.80;99.90
5621;DHT22;2832;50.864;12.186;2022-12-05T15:51:32;5.80;99.90
5621;DHT22;2832;50.864;12.186;2022-12-05T15:54:07;5.80;99.90
5621;DHT22;2832;50.864;12.186;2022-12-05T15:56:41;5.80;99.90
5621;DHT22;2832;50.864;12.186;2022-12-05T15:59:14;5.80;99.90
5621;DHT22;2832;50.864;12.186;2022-12-05T16:01:48;5.80;99.90
5621;DHT22;2832;50.864;12.186;2022-12-05T16:04:21;5.70;99.90
5621;DHT22;2832;50.864;12.186;2022-12-05T16:06:52;5.70;99.90
5621;DHT22;2832;50.864;12.186;2022-12-05T16:09:23;5.70;99.90
5621;DHT22;2832;50.864;12.186;2022-12-05T16:11:52;5.70;99.90
5621;DHT22;2832;50.864;12.186;2022-12-05T16:14:21;5.70;99.90
5621;DHT22;2832;50.864;12.186;2022-12-05T16:16:57;5.70;99.90
5621;DHT22;2832;50.864;12.186;2022-12-05T16:19:26;5.70;99.90
5621;DHT22;2832;50.864;12.186;2022-12-05T16:22:00;5.80;99.90
5621;DHT22;2832;50.864;12.186;2022-12-05T16:24:31;5.80;99.90
5621;DHT22;2832;50.864;12.186;2022-12-05T16:27:01;5.80;99.90
5621;DHT22;2832;50.864;12.186;2022-12-05T16:29:30;5.90;99.90
5621;DHT22;2832;50.864;12.186;2022-12-05T16:32:02;5.80;99.90
5621;DHT22;2832;50.864;12.186;2022-12-05T16:34:33;5.80;99.90
5621;DHT22;2832;50.864;12.186;2022-12-05T16:37:00;5.80;99.90
5621;DHT22;2832;50.864;12.186;2022-12-05T16:39:28;5.90;99.90
5621;DHT22;2832;50.864;12.186;2022-12-05T16:41:57;5.80;99.90
5621;DHT22;2832;50.864;12.186;2022-12-05T16:44:53;5.90;99.90
5621;DHT22;2832;50.864;12.186;2022-12-05T16:48:01;5.90;99.90
5621;DHT22;2832;50.864;12.186;2022-12-05T16:50:30;5.90;99.90
5621;DHT22;2832;50.864;12.186;2022-12-05T16:53:12;5.90;99.90
5621;DHT22;2832;50.864;12.186;2022-12-05T16:55:43;5.90;99.90
5621;DHT22;2832;50.864;12.186;2022-12-05T16:58:21;5.90;99.90